Time;durP1;ratioP1;P1;durP2;ratioP2;P2;SDS_P1;SDS_P2;PMS_P1;PMS_P2;Temp;Humidity;BMP_temperature;BMP_pressure;BME280_temperature;BME280_humidity;BME280_pressure;Samples;Min_cycle;Max_cycle;Signal;HPM_P1;HPM_P2
2022/11/21 00:00:50;;;;;;;18.17;10.95;;;0.70;99.90;;;;;;5072006;28;20131;-58
2022/11/21 00:03:20;;;;;;;17.52;11.07;;;0.70;99.90;;;;;;5069500;28;20174;-61
2022/11/21 00:05:48;;;;;;;19.58;12.15;;;0.70;99.90;;;;;;5050310;28;20656;-59
2022/11/21 00:08:20;;;;;;;19.08;11.10;;;2.60;99.90;;;;;;5063874;28;20052;-58
2022/11/21 00:10:46;;;;;;;20.25;11.68;;;0.70;99.90;;;;;;5060555;28;20536;-58
2022/11/21 00:13:15;;;;;;;18.20;11.00;;;1.60;99.90;;;;;;5069355;28;20131;-57
2022/11/21 00:15:41;;;;;;;20.00;11.55;;;0.70;99.90;;;;;;5074903;28;20066;-57
2022/11/21 00:18:06;;;;;;;23.08;11.93;;;0.70;99.90;;;;;;5077630;28;20456;-57
2022/11/21 00:20:35;;;;;;;20.17;12.38;;;0.70;99.90;;;;;;5070044;28;20060;-57
2022/11/21 00:23:01;;;;;;;21.92;12.13;;;0.70;99.90;;;;;;5073221;28;20051;-57
2022/11/21 00:25:30;;;;;;;20.77;12.70;;;0.70;99.90;;;;;;5061242;28;20109;-59
2022/11/21 00:27:56;;;;;;;24.13;13.90;;;0.70;99.90;;;;;;5069694;28;20060;-60
2022/11/21 00:30:22;;;;;;;21.85;12.38;;;0.70;99.90;;;;;;5045241;28;20438;-58
2022/11/21 00:32:47;;;;;;;22.15;13.13;;;0.70;99.90;;;;;;5064805;28;20059;-57
2022/11/21 00:35:13;;;;;;;22.75;12.63;;;0.70;99.90;;;;;;5069574;28;20599;-57
2022/11/21 00:37:39;;;;;;;20.38;12.32;;;0.70;99.90;;;;;;5048763;28;20052;-57
2022/11/21 00:40:05;;;;;;;18.05;11.23;;;0.70;99.90;;;;;;5071058;28;20380;-58
2022/11/21 00:42:31;;;;;;;18.50;11.13;;;0.70;99.90;;;;;;5068119;28;20066;-57
2022/11/21 00:44:57;;;;;;;22.63;12.55;;;0.70;99.90;;;;;;5075694;28;20490;-57
2022/11/21 00:47:22;;;;;;;19.60;11.77;;;0.70;99.90;;;;;;5072696;28;20421;-56
2022/11/21 00:49:48;;;;;;;19.77;11.52;;;0.60;99.90;;;;;;5075098;28;20140;-57
2022/11/21 00:52:15;;;;;;;19.85;11.60;;;0.70;99.90;;;;;;5080059;28;20855;-57
2022/11/21 00:54:41;;;;;;;21.08;12.60;;;0.60;99.90;;;;;;5078725;28;20548;-57
2022/11/21 00:57:06;;;;;;;21.90;13.13;;;0.60;99.90;;;;;;5079959;28;20069;-57
2022/11/21 00:59:32;;;;;;;18.83;11.70;;;0.70;99.90;;;;;;5017094;28;1113910;-57
2022/11/21 01:01:58;;;;;;;21.83;12.57;;;0.60;99.90;;;;;;5076827;28;20055;-58
2022/11/21 01:04:24;;;;;;;23.13;13.02;;;0.60;99.90;;;;;;5072954;28;20052;-57
2022/11/21 01:06:49;;;;;;;17.30;10.18;;;0.60;99.90;;;;;;5056220;28;20683;-57
2022/11/21 01:09:15;;;;;;;19.15;10.98;;;0.50;99.90;;;;;;5074477;28;20056;-57
2022/11/21 01:11:41;;;;;;;20.33;11.85;;;0.40;99.90;;;;;;5067844;28;20056;-59
2022/11/21 01:14:06;;;;;;;21.38;11.88;;;0.40;99.90;;;;;;5074102;28;20131;-59
2022/11/21 01:16:32;;;;;;;18.33;11.38;;;0.20;99.90;;;;;;5067606;28;20048;-59
2022/11/21 01:18:58;;;;;;;16.75;10.73;;;0.20;99.90;;;;;;5074039;28;20055;-60
2022/11/21 01:21:29;;;;;;;17.00;11.35;;;0.10;99.90;;;;;;5074169;28;20152;-57
2022/11/21 01:23:55;;;;;;;17.55;10.25;;;0.00;99.90;;;;;;5059500;28;20159;-61
2022/11/21 01:26:23;;;;;;;21.02;11.32;;;-0.10;99.90;;;;;;5075326;28;20495;-57
2022/11/21 01:28:50;;;;;;;17.17;9.90;;;0.00;99.90;;;;;;5077012;28;20781;-61
2022/11/21 01:31:20;;;;;;;18.33;11.82;;;-0.10;99.90;;;;;;5077557;28;20093;-59
2022/11/21 01:33:46;;;;;;;19.35;12.23;;;-0.20;99.90;;;;;;5075041;28;20067;-57
2022/11/21 01:36:20;;;;;;;17.10;10.55;;;-0.40;99.90;;;;;;5078651;28;20954;-57
2022/11/21 01:38:48;;;;;;;20.52;11.70;;;-0.40;99.90;;;;;;5072087;28;20515;-57
2022/11/21 01:41:20;;;;;;;15.52;10.70;;;-0.50;99.90;;;;;;5076673;28;20151;-60
2022/11/21 01:43:49;;;;;;;19.83;11.20;;;-0.60;99.90;;;;;;5071617;28;20067;-59
2022/11/21 01:48:49;;;;;;;18.73;11.07;;;-0.80;99.90;;;;;;5071740;28;20056;-62
2022/11/21 01:53:45;;;;;;;19.80;10.82;;;-0.90;99.90;;;;;;5073983;28;20174;-61
2022/11/21 01:56:11;;;;;;;20.85;11.40;;;-0.90;99.90;;;;;;5074407;28;20525;-58
2022/11/21 01:58:40;;;;;;;20.10;11.88;;;-1.00;99.90;;;;;;5057583;28;20213;-57
2022/11/21 02:01:06;;;;;;;20.40;12.50;;;-1.10;99.90;;;;;;5072487;28;20067;-59
2022/11/21 02:03:36;;;;;;;20.08;12.00;;;-1.10;99.90;;;;;;5069255;28;20052;-56
2022/11/21 02:06:04;;;;;;;22.27;12.00;;;-1.20;99.90;;;;;;5072504;28;20064;-61
2022/11/21 02:08:30;;;;;;;18.95;11.02;;;-1.20;99.90;;;;;;5052829;28;20127;-59
2022/11/21 02:13:42;;;;;;;23.90;14.02;;;-1.20;99.90;;;;;;5069718;28;20157;-57
2022/11/21 02:16:08;;;;;;;25.58;12.93;;;-1.30;99.90;;;;;;5074750;28;20063;-58
2022/11/21 02:18:34;;;;;;;18.92;12.77;;;-1.30;99.90;;;;;;5072077;28;20496;-61
2022/11/21 02:21:09;;;;;;;19.33;12.68;;;-1.30;99.90;;;;;;5077188;28;20160;-58
2022/11/21 02:23:45;;;;;;;18.02;10.98;;;-1.30;99.90;;;;;;5071023;28;20056;-58
2022/11/21 02:26:12;;;;;;;22.15;12.63;;;-1.30;99.90;;;;;;5059757;28;20060;-58
2022/11/21 02:28:37;;;;;;;24.10;13.25;;;-1.40;99.90;;;;;;5074104;28;20134;-60
2022/11/21 02:31:03;;;;;;;21.20;12.30;;;-1.40;99.90;;;;;;5055014;28;20079;-57
2022/11/21 02:33:29;;;;;;;20.60;12.32;;;-1.30;99.90;;;;;;5071215;28;20468;-57
2022/11/21 02:35:56;;;;;;;20.80;12.32;;;-1.40;99.90;;;;;;5053878;28;20063;-57
2022/11/21 02:38:34;;;;;;;21.40;13.45;;;-1.20;99.90;;;;;;5069606;28;20053;-56
2022/11/21 02:41:05;;;;;;;23.60;13.48;;;-1.20;99.90;;;;;;5044208;28;20449;-57
2022/11/21 02:43:54;;;;;;;22.60;13.15;;;-1.10;99.90;;;;;;5073414;28;20064;-57
2022/11/21 02:46:20;;;;;;;20.85;11.75;;;-1.10;99.90;;;;;;5047117;28;20566;-56
2022/11/21 02:48:46;;;;;;;22.95;13.07;;;-1.10;99.90;;;;;;5068288;28;20133;-57
2022/11/21 02:51:11;;;;;;;23.27;13.68;;;-1.10;99.90;;;;;;5072104;28;20044;-57
2022/11/21 02:53:37;;;;;;;26.23;13.00;;;-1.10;99.90;;;;;;5065806;28;20094;-57
2022/11/21 02:56:03;;;;;;;20.77;12.48;;;-1.10;99.90;;;;;;5073915;28;20082;-57
2022/11/21 02:58:28;;;;;;;21.90;12.13;;;-1.00;99.90;;;;;;5062257;28;20052;-58
2022/11/21 03:00:54;;;;;;;21.25;12.82;;;-1.00;99.90;;;;;;5070573;28;20052;-59
2022/11/21 03:03:20;;;;;;;21.58;13.63;;;-0.90;99.90;;;;;;5067938;28;20516;-55
2022/11/21 03:05:47;;;;;;;21.27;13.23;;;-0.80;99.90;;;;;;5062782;28;20400;-58
2022/11/21 03:08:12;;;;;;;25.08;13.55;;;-0.80;99.90;;;;;;5072796;28;20048;-58
2022/11/21 03:10:38;;;;;;;20.63;13.57;;;-0.80;99.90;;;;;;5064751;28;20563;-57
2022/11/21 03:13:04;;;;;;;23.92;13.98;;;-0.80;99.90;;;;;;5067170;28;20052;-57
2022/11/21 03:15:32;;;;;;;23.08;14.10;;;-0.80;99.90;;;;;;5063072;28;20163;-57
2022/11/21 03:18:00;;;;;;;20.73;12.13;;;-0.70;99.90;;;;;;5072089;28;20063;-57
2022/11/21 03:20:25;;;;;;;26.10;14.10;;;-0.70;99.90;;;;;;5064365;28;20118;-56
2022/11/21 03:22:52;;;;;;;21.92;13.60;;;-0.80;99.90;;;;;;5067075;28;20053;-57
2022/11/21 03:25:21;;;;;;;24.85;12.13;;;-0.80;99.90;;;;;;5069996;28;20052;-56
2022/11/21 03:27:52;;;;;;;20.30;12.57;;;-0.80;99.90;;;;;;5067889;28;20060;-57
2022/11/21 03:30:22;;;;;;;19.25;11.38;;;-1.00;99.90;;;;;;5067549;28;20131;-59
2022/11/21 03:32:48;;;;;;;22.20;13.38;;;-0.90;99.90;;;;;;5066175;28;20071;-57
2022/11/21 03:35:14;;;;;;;20.80;12.57;;;-0.20;99.90;;;;;;5066375;28;20175;-58
2022/11/21 03:37:40;;;;;;;23.65;13.30;;;-1.10;99.90;;;;;;5068318;28;20052;-61
2022/11/21 03:40:06;;;;;;;26.88;14.80;;;-1.10;99.90;;;;;;5068316;28;20486;-57
2022/11/21 03:42:32;;;;;;;21.83;13.68;;;-1.10;99.90;;;;;;5067682;28;20052;-59
2022/11/21 03:44:57;;;;;;;23.85;13.05;;;-1.10;99.90;;;;;;5066740;28;20063;-58
2022/11/21 03:47:24;;;;;;;27.75;13.73;;;-1.10;99.90;;;;;;5066737;28;20060;-56
2022/11/21 03:49:50;;;;;;;21.20;13.45;;;-1.10;99.90;;;;;;5069693;28;20052;-57
2022/11/21 03:52:15;;;;;;;20.80;12.27;;;-1.10;99.90;;;;;;5066838;28;20054;-58
2022/11/21 03:54:41;;;;;;;31.23;15.27;;;-1.10;99.90;;;;;;5068028;28;20639;-57
2022/11/21 03:57:07;;;;;;;22.55;13.23;;;-1.00;99.90;;;;;;5064497;28;20409;-57
2022/11/21 03:59:32;;;;;;;23.35;13.38;;;-1.10;99.90;;;;;;5066316;28;20079;-58
2022/11/21 04:01:58;;;;;;;21.85;14.18;;;-1.00;99.90;;;;;;5063241;28;20052;-57
2022/11/21 04:04:24;;;;;;;26.40;14.10;;;-1.00;99.90;;;;;;5067928;28;20374;-57
2022/11/21 04:06:49;;;;;;;24.88;14.48;;;-0.90;99.90;;;;;;5068134;28;20133;-57
2022/11/21 04:09:15;;;;;;;25.42;14.57;;;-0.90;99.90;;;;;;5067197;28;20540;-57
2022/11/21 04:11:41;;;;;;;24.98;14.05;;;-0.90;99.90;;;;;;5065127;28;20509;-57
2022/11/21 04:14:06;;;;;;;26.77;14.00;;;-0.90;99.90;;;;;;5069410;28;20052;-57
2022/11/21 04:16:32;;;;;;;26.92;16.80;;;-0.80;99.90;;;;;;5066929;28;20060;-56
2022/11/21 04:18:57;;;;;;;25.27;14.80;;;-0.70;99.90;;;;;;5065769;28;20116;-57
2022/11/21 04:21:23;;;;;;;28.73;16.35;;;-0.70;99.90;;;;;;5052659;28;20051;-57
2022/11/21 04:23:49;;;;;;;30.55;16.60;;;-0.60;99.90;;;;;;5046959;28;20052;-57
2022/11/21 04:26:14;;;;;;;28.60;17.10;;;-0.60;99.90;;;;;;5068934;28;20549;-57
2022/11/21 04:28:40;;;;;;;32.15;18.15;;;-0.40;99.90;;;;;;5047094;28;20541;-57
2022/11/21 04:31:07;;;;;;;33.38;16.98;;;-0.60;99.90;;;;;;5056423;28;20060;-58
2022/11/21 04:33:33;;;;;;;27.13;15.50;;;-0.50;99.90;;;;;;5056834;28;20076;-57
2022/11/21 04:35:59;;;;;;;30.42;17.15;;;-0.50;99.90;;;;;;5073968;28;20197;-61
2022/11/21 04:38:24;;;;;;;30.90;16.33;;;-0.50;99.90;;;;;;5055788;28;20888;-58
2022/11/21 04:40:50;;;;;;;26.80;15.65;;;-0.50;99.90;;;;;;5058066;28;20059;-58
2022/11/21 04:45:45;;;;;;;29.88;17.75;;;-0.50;99.90;;;;;;5073265;28;20044;-57
2022/11/21 04:48:11;;;;;;;23.95;14.52;;;-0.40;99.90;;;;;;5073427;28;20383;-57
2022/11/21 04:50:37;;;;;;;29.33;16.52;;;-0.50;99.90;;;;;;5072746;28;20146;-59
2022/11/21 04:53:03;;;;;;;23.10;14.55;;;-0.50;99.90;;;;;;5072849;28;20052;-57
2022/11/21 04:55:30;;;;;;;31.10;16.52;;;-0.40;99.90;;;;;;5072354;28;20179;-58
2022/11/21 04:57:57;;;;;;;36.30;18.77;;;-0.40;99.90;;;;;;5058540;28;20143;-58
2022/11/21 05:00:23;;;;;;;39.85;19.50;;;0.00;99.90;;;;;;5075577;28;20094;-60
2022/11/21 05:02:48;;;;;;;27.42;17.52;;;-0.40;99.90;;;;;;5045745;28;20766;-57
2022/11/21 05:05:14;;;;;;;30.17;17.77;;;-0.40;99.90;;;;;;5070442;28;20056;-57
2022/11/21 05:07:40;;;;;;;31.85;17.25;;;-0.40;99.90;;;;;;5068684;28;20048;-58
2022/11/21 05:10:06;;;;;;;30.45;17.50;;;-0.30;99.90;;;;;;5065808;28;20040;-58
2022/11/21 05:15:36;;;;;;;28.73;16.80;;;-0.30;99.90;;;;;;5020440;28;1138680;-58
2022/11/21 05:18:01;;;;;;;28.38;14.88;;;-0.40;99.90;;;;;;5071374;28;20056;-58
2022/11/21 05:20:27;;;;;;;30.05;16.55;;;-0.50;99.90;;;;;;5061380;28;20056;-60
2022/11/21 05:22:53;;;;;;;31.42;17.08;;;-0.50;99.90;;;;;;5052201;28;20407;-61
2022/11/21 05:25:21;;;;;;;29.38;17.13;;;-0.50;99.90;;;;;;5067502;28;20506;-59
2022/11/21 05:27:47;;;;;;;27.67;15.48;;;-0.60;99.90;;;;;;5074005;28;20544;-58
2022/11/21 05:30:13;;;;;;;29.70;16.35;;;-0.60;99.90;;;;;;5077385;28;20146;-58
2022/11/21 05:32:38;;;;;;;27.17;16.92;;;-0.70;99.90;;;;;;5074184;28;20064;-59
2022/11/21 05:35:06;;;;;;;29.20;15.05;;;-0.80;99.90;;;;;;5060739;28;20180;-58
2022/11/21 05:37:31;;;;;;;28.13;16.92;;;-0.80;99.90;;;;;;5058302;28;20044;-58
2022/11/21 05:39:57;;;;;;;29.30;15.43;;;-0.80;99.90;;;;;;5079684;28;20109;-58
2022/11/21 05:43:44;;;;;;;27.83;15.50;;;-1.00;99.90;;;;;;5074239;28;20151;-58
2022/11/21 05:45:09;;;;;;;27.70;16.63;;;-1.00;99.90;;;;;;5074589;28;20048;-58
2022/11/21 05:47:35;;;;;;;30.88;17.60;;;-1.10;99.90;;;;;;5073364;28;20136;-59
2022/11/21 05:50:00;;;;;;;24.75;15.27;;;-1.20;99.90;;;;;;5058270;28;20147;-61
2022/11/21 05:52:27;;;;;;;25.45;14.73;;;-1.20;99.90;;;;;;5075597;28;20059;-58
2022/11/21 05:54:53;;;;;;;28.75;16.08;;;-1.20;99.90;;;;;;5075142;28;20052;-57
2022/11/21 05:57:20;;;;;;;25.95;14.55;;;-1.30;99.90;;;;;;5060720;28;20070;-57
2022/11/21 05:59:46;;;;;;;26.27;14.45;;;-1.30;99.90;;;;;;5070630;28;20452;-57
2022/11/21 06:04:45;;;;;;;;;;;-1.40;99.90;;;;;;5051870;28;20077;-58
2022/11/21 06:07:11;;;;;;;27.38;15.02;;;-1.50;99.90;;;;;;5074725;28;19923;-58
2022/11/21 06:09:37;;;;;;;27.00;16.05;;;-1.60;99.90;;;;;;5071040;28;20064;-58
2022/11/21 06:12:03;;;;;;;29.75;17.25;;;-1.60;99.90;;;;;;5074052;28;20109;-57
2022/11/21 06:14:28;;;;;;;27.27;15.25;;;-1.60;99.90;;;;;;5069640;28;20056;-58
2022/11/21 06:16:54;;;;;;;28.77;14.73;;;-1.60;99.90;;;;;;5072608;28;20048;-58
2022/11/21 06:19:20;;;;;;;29.35;15.60;;;-1.60;99.90;;;;;;5072108;28;20048;-59
2022/11/21 06:21:46;;;;;;;25.20;15.25;;;-1.70;99.90;;;;;;5069085;28;20083;-57
2022/11/21 06:24:12;;;;;;;25.35;14.63;;;-1.80;99.90;;;;;;5073381;28;20131;-57
2022/11/21 06:26:37;;;;;;;23.95;15.68;;;-1.80;99.90;;;;;;5069602;28;20398;-57
2022/11/21 06:29:03;;;;;;;21.45;13.05;;;-1.90;99.90;;;;;;5072132;28;20517;-57
2022/11/21 06:31:29;;;;;;;23.40;12.35;;;-1.90;99.90;;;;;;5065586;28;20453;-57
2022/11/21 06:33:57;;;;;;;28.95;15.32;;;-1.90;99.90;;;;;;5068069;28;20067;-57
2022/11/21 06:36:24;;;;;;;24.23;15.55;;;-1.90;99.90;;;;;;5066087;28;20075;-56
2022/11/21 06:38:52;;;;;;;27.33;14.48;;;-1.90;99.90;;;;;;5069556;28;20087;-57
2022/11/21 06:41:24;;;;;;;25.13;15.98;;;-1.90;99.90;;;;;;5070317;28;20121;-57
2022/11/21 06:43:50;;;;;;;28.65;15.68;;;-2.00;99.90;;;;;;5072229;28;20059;-57
2022/11/21 06:46:20;;;;;;;27.02;16.58;;;-2.10;99.90;;;;;;5070747;28;20202;-57
2022/11/21 06:48:46;;;;;;;28.75;15.77;;;-2.10;99.90;;;;;;5067742;28;20071;-57
2022/11/21 06:51:20;;;;;;;28.10;15.13;;;-2.10;99.90;;;;;;5054119;28;20048;-59
2022/11/21 06:53:47;;;;;;;26.30;15.20;;;-2.20;99.90;;;;;;5068577;28;20095;-58
2022/11/21 06:56:14;;;;;;;27.42;15.27;;;-2.10;99.90;;;;;;5071773;28;20060;-59
2022/11/21 06:58:40;;;;;;;29.17;14.60;;;-2.20;99.90;;;;;;5064184;28;20055;-58
2022/11/21 07:01:08;;;;;;;28.50;17.42;;;-2.20;99.90;;;;;;5066349;28;20055;-58
2022/11/21 07:03:34;;;;;;;33.33;17.30;;;-1.20;99.90;;;;;;5069551;28;20052;-58
2022/11/21 07:06:00;;;;;;;28.23;16.20;;;-2.20;99.90;;;;;;5068358;28;20473;-57
2022/11/21 07:08:31;;;;;;;30.65;17.30;;;-2.20;99.90;;;;;;5050180;28;20490;-58
2022/11/21 07:11:05;;;;;;;31.25;16.40;;;-2.30;99.90;;;;;;5050158;28;20052;-58
2022/11/21 07:13:31;;;;;;;;;;;-1.20;99.90;;;;;;5062516;28;20514;-58
2022/11/21 07:16:08;;;;;;;32.40;18.17;;;-1.50;99.90;;;;;;5070569;28;20450;-57
2022/11/21 07:18:34;;;;;;;29.25;17.08;;;-2.20;99.90;;;;;;5045204;28;20385;-58
2022/11/21 07:21:02;;;;;;;31.02;18.17;;;-2.20;99.90;;;;;;5059993;28;20513;-58
2022/11/21 07:23:29;;;;;;;28.58;17.88;;;-2.20;99.90;;;;;;5049780;28;20399;-56
2022/11/21 07:25:59;;;;;;;31.48;19.90;;;-2.20;99.90;;;;;;5064387;28;20055;-57
2022/11/21 07:28:25;;;;;;;32.15;16.98;;;-1.80;99.90;;;;;;5047143;28;20067;-57
2022/11/21 07:30:54;;;;;;;30.70;16.55;;;-2.20;99.90;;;;;;5066420;28;20053;-57
2022/11/21 07:33:20;;;;;;;30.60;16.45;;;-1.20;99.90;;;;;;5065892;28;20469;-56
2022/11/21 07:35:46;;;;;;;31.80;17.42;;;-2.10;99.90;;;;;;5058956;28;20052;-58
2022/11/21 07:38:12;;;;;;;31.90;17.70;;;-2.10;99.90;;;;;;5049125;28;20060;-57
2022/11/21 07:40:37;;;;;;;28.67;16.58;;;-2.10;99.90;;;;;;5064446;28;20069;-57
2022/11/21 07:43:04;;;;;;;28.95;17.70;;;-1.50;99.90;;;;;;5069822;28;20580;-57
2022/11/21 07:45:31;;;;;;;28.00;16.63;;;-2.00;99.90;;;;;;5065672;28;20076;-57
2022/11/21 07:48:01;;;;;;;32.50;17.77;;;-1.50;99.90;;;;;;5062819;28;20059;-57
2022/11/21 07:50:27;;;;;;;34.42;16.65;;;-1.90;99.90;;;;;;5064869;28;20525;-57
2022/11/21 07:53:05;;;;;;;35.03;19.45;;;-1.90;99.90;;;;;;5066589;28;20738;-57
2022/11/21 07:55:31;;;;;;;33.00;18.77;;;-1.90;99.90;;;;;;5061388;28;20064;-57
2022/11/21 07:58:03;;;;;;;32.80;18.17;;;-1.80;99.90;;;;;;5068829;28;20489;-58
2022/11/21 08:00:30;;;;;;;38.60;20.60;;;-1.80;99.90;;;;;;5063870;28;20055;-58
2022/11/21 08:02:56;;;;;;;32.08;18.77;;;-1.80;99.90;;;;;;5062158;28;20052;-57
2022/11/21 08:05:22;;;;;;;39.08;19.60;;;-1.70;99.90;;;;;;5025776;28;20103;-58
2022/11/21 08:07:48;;;;;;;40.10;21.98;;;-1.60;99.90;;;;;;5047900;28;20159;-57
2022/11/21 08:10:15;;;;;;;34.13;17.52;;;-1.60;99.90;;;;;;5063357;28;20492;-58
2022/11/21 08:12:42;;;;;;;40.78;21.95;;;-1.00;99.90;;;;;;5066401;28;20057;-58
2022/11/21 08:15:08;;;;;;;37.92;20.75;;;-1.40;99.90;;;;;;5061182;28;20695;-60
2022/11/21 08:17:34;;;;;;;34.83;20.65;;;-1.30;99.90;;;;;;5066869;28;20117;-58
2022/11/21 08:20:00;;;;;;;38.75;21.40;;;-1.30;99.90;;;;;;5071121;28;20048;-59
2022/11/21 08:22:26;;;;;;;35.05;19.10;;;-1.20;99.90;;;;;;5065469;28;20052;-60
2022/11/21 08:24:53;;;;;;;33.38;19.42;;;-1.20;99.90;;;;;;5070587;28;20052;-61
2022/11/21 08:27:20;;;;;;;35.47;17.95;;;-1.10;99.90;;;;;;5071922;28;20545;-60
2022/11/21 08:29:46;;;;;;;39.47;20.67;;;-1.00;99.90;;;;;;5066172;28;20410;-57
2022/11/21 08:32:13;;;;;;;34.28;20.08;;;-0.90;99.90;;;;;;5046092;28;20067;-58
2022/11/21 08:34:39;;;;;;;31.23;18.15;;;-0.90;99.90;;;;;;5067996;28;20052;-59
2022/11/21 08:37:04;;;;;;;39.47;18.38;;;-0.80;99.90;;;;;;5070927;28;20442;-61
2022/11/21 08:39:30;;;;;;;37.35;20.23;;;-0.80;99.90;;;;;;5065265;28;20049;-61
2022/11/21 08:42:02;;;;;;;35.63;19.55;;;-0.70;99.90;;;;;;5066758;28;20052;-60
2022/11/21 08:44:33;;;;;;;35.55;18.67;;;-0.60;99.90;;;;;;5062081;28;20059;-57
2022/11/21 08:46:58;;;;;;;36.05;20.17;;;-0.50;99.90;;;;;;5072803;28;20059;-59
2022/11/21 08:49:24;;;;;;;35.53;18.85;;;-0.40;99.90;;;;;;5071192;28;20052;-58
2022/11/21 08:51:51;;;;;;;32.33;18.27;;;-0.40;99.90;;;;;;5051043;28;20561;-58
2022/11/21 08:56:42;;;;;;;35.65;18.88;;;-0.10;99.90;;;;;;5056313;28;20052;-58
2022/11/21 08:59:08;;;;;;;29.65;17.77;;;1.90;99.90;;;;;;5064129;28;20142;-57
2022/11/21 09:01:34;;;;;;;37.15;19.70;;;0.10;99.90;;;;;;5058999;28;20476;-59
2022/11/21 09:03:59;;;;;;;31.08;17.42;;;0.20;99.90;;;;;;5068467;28;20058;-56
2022/11/21 09:06:25;;;;;;;28.77;17.67;;;0.30;99.90;;;;;;5033022;28;20052;-55
2022/11/21 09:08:51;;;;;;;34.30;18.58;;;0.40;99.90;;;;;;5065402;28;20477;-57
2022/11/21 09:11:20;;;;;;;33.58;18.63;;;0.40;99.90;;;;;;5043721;28;20049;-56
2022/11/21 09:18:01;;;;;;;30.77;18.48;;;0.50;99.90;;;;;;5064997;28;20049;-57
2022/11/21 09:19:20;;;;;;;29.67;18.17;;;0.80;99.90;;;;;;5065256;28;20443;-56
2022/11/21 09:21:49;;;;;;;33.28;17.55;;;0.90;99.90;;;;;;5064004;28;20475;-57
2022/11/21 09:24:14;;;;;;;31.17;18.30;;;0.90;99.90;;;;;;5056740;28;20048;-57
2022/11/21 09:26:40;;;;;;;28.05;16.63;;;1.00;99.90;;;;;;5067403;28;20058;-59
2022/11/21 09:29:09;;;;;;;29.48;18.00;;;1.10;99.90;;;;;;5066089;28;20133;-59
2022/11/21 09:31:38;;;;;;;28.33;17.20;;;1.20;99.90;;;;;;5064902;28;20848;-59
2022/11/21 09:34:03;;;;;;;33.70;18.48;;;1.20;99.90;;;;;;5067625;28;20053;-57
2022/11/21 09:36:29;;;;;;;29.10;15.90;;;2.70;99.90;;;;;;5059531;28;20059;-59
2022/11/21 09:38:55;;;;;;;31.50;17.60;;;1.50;99.90;;;;;;5030457;28;1088061;-59
2022/11/21 09:41:53;;;;;;;30.73;17.48;;;1.60;99.90;;;;;;5062942;28;20319;-58
2022/11/21 09:44:26;;;;;;;27.48;15.88;;;1.70;99.90;;;;;;5065361;28;20062;-57
2022/11/21 09:47:20;;;;;;;31.50;17.45;;;1.80;99.90;;;;;;5039181;28;20057;-58
2022/11/21 09:49:52;;;;;;;28.60;17.23;;;1.90;99.90;;;;;;5064378;28;20057;-58
2022/11/21 09:52:29;;;;;;;26.10;15.75;;;2.00;99.90;;;;;;5069447;28;20086;-58
2022/11/21 09:55:02;;;;;;;28.30;17.45;;;3.10;99.90;;;;;;5065571;28;20115;-58
2022/11/21 09:57:28;;;;;;;26.75;15.65;;;2.20;99.90;;;;;;5066855;28;20080;-59
2022/11/21 09:59:54;;;;;;;27.35;15.95;;;2.30;99.90;;;;;;5067847;28;20143;-57
2022/11/21 10:02:23;;;;;;;31.42;16.58;;;1.90;99.90;;;;;;5070566;28;20052;-56
2022/11/21 10:04:50;;;;;;;58.28;17.65;;;2.40;99.90;;;;;;5075297;28;20050;-58
2022/11/21 10:07:20;;;;;;;27.42;16.17;;;2.50;99.90;;;;;;5068289;28;20056;-60
2022/11/21 10:10:05;;;;;;;29.13;15.60;;;2.60;99.90;;;;;;5077032;28;20204;-58
2022/11/21 10:12:56;;;;;;;25.50;15.82;;;2.70;99.90;;;;;;5075230;28;20413;-59
2022/11/21 10:15:50;;;;;;;25.10;15.98;;;2.80;99.90;;;;;;5065236;28;20608;-59
2022/11/21 10:18:20;;;;;;;24.42;14.40;;;2.80;99.90;;;;;;5073328;28;20163;-58
2022/11/21 10:20:55;;;;;;;25.60;16.02;;;3.00;99.90;;;;;;5070639;28;20063;-60
2022/11/21 10:23:33;;;;;;;27.63;15.50;;;3.00;99.90;;;;;;5059643;28;20064;-57
2022/11/21 10:26:20;;;;;;;24.77;15.40;;;3.20;99.90;;;;;;5063981;28;20057;-61
2022/11/21 10:28:45;;;;;;;23.05;13.93;;;3.20;99.90;;;;;;5059461;28;20383;-59
2022/11/21 10:31:14;;;;;;;24.02;14.68;;;3.50;99.90;;;;;;5065319;28;20106;-60
2022/11/21 10:33:40;;;;;;;25.25;14.60;;;3.30;99.90;;;;;;5060958;28;20501;-58
2022/11/21 10:36:20;;;;;;;25.20;14.20;;;3.50;99.90;;;;;;5066835;28;20056;-57
2022/11/21 10:38:49;;;;;;;24.05;13.98;;;3.80;99.90;;;;;;5060473;28;20059;-57
2022/11/21 10:41:20;;;;;;;23.25;12.88;;;4.00;99.90;;;;;;5064250;28;20103;-57
2022/11/21 10:47:26;;;;;;;23.40;13.57;;;3.90;99.90;;;;;;5059221;28;20493;-59
2022/11/21 10:50:20;;;;;;;21.48;13.77;;;3.90;99.90;;;;;;5050983;28;20144;-57
2022/11/21 10:52:52;;;;;;;22.52;13.63;;;4.00;99.90;;;;;;5044551;28;20516;-57
2022/11/21 10:55:21;;;;;;;19.92;12.82;;;3.90;99.90;;;;;;5048667;28;20143;-58
2022/11/21 10:57:51;;;;;;;21.70;12.50;;;3.90;99.90;;;;;;5061991;28;21561;-62
2022/11/21 11:00:21;;;;;;;24.50;14.15;;;2.50;99.90;;;;;;5052249;28;20493;-57
2022/11/21 11:02:56;;;;;;;22.48;14.45;;;3.90;99.90;;;;;;5052271;28;20064;-61
2022/11/21 11:05:23;;;;;;;24.25;13.82;;;4.10;99.90;;;;;;5063534;28;20210;-60
2022/11/21 11:08:07;;;;;;;25.27;14.95;;;3.90;99.90;;;;;;5058515;28;20044;-57
2022/11/21 11:10:36;;;;;;;24.98;13.90;;;4.10;99.90;;;;;;5040993;28;20044;-58
2022/11/21 11:16:14;;;;;;;20.70;12.10;;;3.90;99.90;;;;;;5063753;28;20044;-57
2022/11/21 11:19:07;;;;;;;21.67;12.75;;;3.90;99.90;;;;;;5064153;28;20131;-57
2022/11/21 11:21:43;;;;;;;24.63;13.95;;;4.00;99.90;;;;;;5043932;28;20064;-57
2022/11/21 11:24:08;;;;;;;21.38;12.75;;;4.10;99.90;;;;;;5054385;28;20075;-57
2022/11/21 11:26:46;;;;;;;23.23;13.90;;;4.90;99.90;;;;;;5073597;28;20457;-57
2022/11/21 11:29:20;;;;;;;23.30;12.07;;;4.40;99.90;;;;;;5065486;28;20060;-57
2022/11/21 11:31:58;;;;;;;19.17;12.38;;;4.30;99.90;;;;;;5065018;28;20044;-58
2022/11/21 11:34:36;;;;;;;18.98;11.55;;;4.30;99.90;;;;;;5070100;28;20086;-57
2022/11/21 11:37:20;;;;;;;18.45;11.55;;;4.30;99.90;;;;;;5055323;28;20064;-58
2022/11/21 11:40:00;;;;;;;21.20;13.07;;;4.60;99.90;;;;;;5052810;28;20079;-62
2022/11/21 11:48:47;;;;;;;21.17;12.57;;;4.60;99.90;;;;;;5045435;28;20069;-60
2022/11/21 11:51:20;;;;;;;22.23;13.40;;;4.80;99.90;;;;;;5056519;28;20153;-63
2022/11/21 11:53:51;;;;;;;18.33;11.65;;;4.60;99.90;;;;;;5046859;28;20407;-58
2022/11/21 11:56:35;;;;;;;23.60;12.30;;;4.70;99.90;;;;;;5065567;28;20067;-57
2022/11/21 11:59:10;;;;;;;;;;;4.60;99.90;;;;;;5067441;28;20499;-57
2022/11/21 12:01:41;;;;;;;17.80;11.18;;;4.70;99.90;;;;;;5043136;28;19928;-58
2022/11/21 12:04:11;;;;;;;21.25;12.18;;;4.90;99.90;;;;;;5068501;28;20524;-57
2022/11/21 12:06:47;;;;;;;23.75;13.73;;;5.00;99.90;;;;;;5048274;28;20060;-57
2022/11/21 12:09:20;;;;;;;24.55;14.52;;;5.10;99.90;;;;;;5051396;28;20064;-57
2022/11/21 12:12:07;;;;;;;22.48;11.80;;;5.00;99.90;;;;;;5049467;28;20083;-57
2022/11/21 12:17:39;;;;;;;20.55;11.93;;;5.40;99.90;;;;;;5056942;28;20056;-57
2022/11/21 12:20:20;;;;;;;18.95;12.32;;;5.40;99.90;;;;;;5067718;28;20074;-57
2022/11/21 12:22:48;;;;;;;21.25;12.38;;;5.50;99.90;;;;;;5049266;28;20069;-57
2022/11/21 12:25:14;;;;;;;19.90;11.75;;;5.40;99.90;;;;;;5065117;28;20390;-57
2022/11/21 12:27:41;;;;;;;15.55;10.68;;;5.20;99.90;;;;;;5064941;28;20810;-58
2022/11/21 12:32:42;;;;;;;21.95;12.65;;;5.30;99.90;;;;;;5056512;28;20114;-57
2022/11/21 12:35:20;;;;;;;17.88;11.02;;;5.30;99.90;;;;;;5062620;28;20060;-58
2022/11/21 12:37:55;;;;;;;15.57;9.98;;;5.20;99.90;;;;;;5064941;28;20056;-57
2022/11/21 12:40:44;;;;;;;25.55;15.45;;;5.30;99.90;;;;;;5064751;28;20590;-55
2022/11/21 12:43:20;;;;;;;15.95;10.57;;;5.30;99.90;;;;;;5041089;28;20060;-58
2022/11/21 12:45:54;;;;;;;17.83;10.75;;;5.30;99.90;;;;;;5059518;28;20052;-57
2022/11/21 12:54:29;;;;;;;14.65;9.20;;;4.90;99.90;;;;;;5038475;28;20146;-58
2022/11/21 13:00:20;;;;;;;15.48;8.70;;;4.70;99.90;;;;;;5068461;28;20549;-58
2022/11/21 13:03:04;;;;;;;12.98;8.68;;;4.70;99.90;;;;;;5057223;28;20682;-58
2022/11/21 13:05:35;;;;;;;14.07;9.20;;;4.60;99.90;;;;;;5064882;28;20052;-62
2022/11/21 13:08:09;;;;;;;15.40;8.10;;;4.60;99.90;;;;;;5065242;28;20165;-63
2022/11/21 13:10:36;;;;;;;21.65;14.98;;;4.60;99.90;;;;;;5060663;28;20052;-59
2022/11/21 13:13:20;;;;;;;15.60;11.07;;;4.60;99.90;;;;;;5045609;28;20163;-60
2022/11/21 13:16:35;;;;;;;13.18;9.50;;;4.60;99.90;;;;;;5072255;28;20569;-58
2022/11/21 13:19:20;;;;;;;12.02;8.00;;;4.60;99.90;;;;;;5067781;28;20083;-63
2022/11/21 13:21:49;;;;;;;12.93;7.38;;;4.60;99.90;;;;;;5069676;28;20060;-58
2022/11/21 13:24:20;;;;;;;11.30;7.75;;;5.10;99.90;;;;;;5045984;28;20545;-59
2022/11/21 13:26:51;;;;;;;12.02;8.10;;;4.70;99.90;;;;;;5067310;28;20051;-58
2022/11/21 13:29:21;;;;;;;11.10;6.75;;;4.70;99.90;;;;;;5050351;28;20044;-58
2022/11/21 13:31:46;;;;;;;12.75;7.70;;;4.60;99.90;;;;;;5059153;28;20195;-58